createdAt,value
2023-05-18T00:01:17.740Z,2.65
2023-05-18T00:03:55.194Z,2.70
2023-05-18T00:06:33.822Z,2.55
2023-05-18T00:09:03.566Z,2.08
2023-05-18T00:11:33.630Z,2.40
2023-05-18T00:14:03.375Z,2.80
2023-05-18T00:16:35.867Z,2.85
2023-05-18T00:19:04.187Z,2.13
2023-05-18T00:21:33.563Z,2.40
2023-05-18T00:24:03.179Z,2.40
2023-05-18T00:26:31.305Z,2.72
2023-05-18T00:29:00.567Z,2.10
2023-05-18T00:31:28.819Z,2.80
2023-05-18T00:33:58.172Z,2.95
2023-05-18T00:36:29.471Z,2.42
2023-05-18T00:38:57.628Z,2.95
2023-05-18T00:41:27.527Z,2.80
2023-05-18T00:43:55.981Z,2.80
2023-05-18T00:46:29.265Z,2.70
2023-05-18T00:48:58.900Z,2.87
2023-05-18T00:51:27.751Z,2.57
2023-05-18T00:54:00.406Z,3.53
2023-05-18T00:56:34.403Z,2.53
2023-05-18T00:59:04.882Z,2.83
2023-05-18T01:01:36.550Z,2.50
2023-05-18T01:04:05.334Z,2.50
2023-05-18T01:06:36.259Z,2.40
2023-05-18T01:09:07.211Z,2.05
2023-05-18T01:11:43.096Z,2.17
2023-05-18T01:14:19.178Z,3.13
2023-05-18T01:16:56.743Z,2.63
2023-05-18T01:20:19.280Z,2.40
2023-05-18T01:23:11.968Z,2.25
2023-05-18T01:25:48.799Z,2.30
2023-05-18T01:28:23.173Z,2.20
2023-05-18T01:30:52.183Z,2.23
2023-05-18T01:33:21.773Z,2.22
2023-05-18T01:35:52.604Z,2.00
2023-05-18T01:38:24.179Z,2.00
2023-05-18T01:40:58.624Z,2.00
2023-05-18T01:43:37.374Z,1.80
2023-05-18T01:46:19.149Z,2.20
2023-05-18T01:48:53.892Z,2.13
2023-05-18T01:51:23.965Z,2.20
2023-05-18T01:53:58.272Z,2.27
2023-05-18T01:56:27.480Z,2.03
2023-05-18T01:58:57.600Z,2.03
2023-05-18T02:01:25.957Z,2.13
2023-05-18T02:04:00.237Z,2.42
2023-05-18T02:06:28.432Z,2.33
2023-05-18T02:08:57.588Z,2.50
2023-05-18T02:11:26.283Z,2.25
2023-05-18T02:13:54.358Z,2.30
2023-05-18T02:16:26.476Z,2.40
2023-05-18T02:18:54.719Z,2.15
2023-05-18T02:21:23.372Z,2.40
2023-05-18T02:23:54.082Z,2.00
2023-05-18T02:26:24.942Z,1.87
2023-05-18T02:28:53.021Z,1.87
2023-05-18T02:31:21.091Z,2.17
2023-05-18T02:33:53.287Z,2.00
2023-05-18T02:36:22.512Z,2.40
2023-05-18T02:38:54.739Z,1.80
2023-05-18T02:41:23.504Z,1.83
2023-05-18T02:43:53.428Z,1.87
2023-05-18T02:46:22.223Z,1.87
2023-05-18T02:48:50.758Z,1.90
2023-05-18T02:51:27.778Z,2.07
2023-05-18T02:53:59.448Z,1.93
2023-05-18T02:56:28.661Z,1.70
2023-05-18T02:58:58.627Z,2.22
2023-05-18T03:01:27.380Z,2.00
2023-05-18T03:03:57.863Z,1.90
2023-05-18T03:06:27.667Z,1.98
2023-05-18T03:08:55.803Z,1.90
2023-05-18T03:11:26.150Z,2.50
2023-05-18T03:13:54.772Z,1.97
2023-05-18T03:16:30.481Z,2.27
2023-05-18T03:18:59.439Z,2.30
2023-05-18T03:21:33.924Z,1.80
2023-05-18T03:24:02.476Z,1.90
2023-05-18T03:26:36.368Z,2.03
2023-05-18T03:29:04.423Z,2.10
2023-05-18T03:31:34.212Z,2.23
2023-05-18T03:34:02.706Z,2.07
2023-05-18T03:36:38.433Z,1.70
2023-05-18T03:39:08.727Z,2.13
2023-05-18T03:41:36.804Z,2.23
2023-05-18T03:44:04.885Z,2.23
2023-05-18T03:46:34.957Z,2.63
2023-05-18T03:49:04.829Z,2.30
2023-05-18T03:51:34.366Z,2.10
2023-05-18T03:54:02.439Z,1.97
2023-05-18T03:56:31.859Z,1.87
2023-05-18T03:59:03.469Z,1.80
2023-05-18T04:01:32.980Z,2.10
2023-05-18T04:04:01.492Z,2.53
2023-05-18T04:06:35.736Z,2.08
2023-05-18T04:09:07.558Z,2.77
2023-05-18T04:11:35.926Z,2.07
2023-05-18T04:14:03.948Z,2.00
2023-05-18T04:16:32.121Z,2.57
2023-05-18T04:19:00.487Z,2.47
2023-05-18T04:21:33.820Z,2.40
2023-05-18T04:24:05.506Z,2.67
2023-05-18T04:26:36.544Z,2.63
2023-05-18T04:29:04.870Z,2.57
2023-05-18T04:31:37.294Z,2.23
2023-05-18T04:34:05.535Z,2.30
2023-05-18T04:36:35.110Z,2.93
2023-05-18T04:39:07.803Z,2.57
2023-05-18T04:41:44.749Z,2.40
2023-05-18T04:44:14.164Z,2.90
2023-05-18T04:46:42.231Z,2.03
2023-05-18T04:49:11.740Z,2.50
2023-05-18T04:51:39.883Z,2.67
2023-05-18T04:54:13.158Z,2.42
2023-05-18T04:56:41.352Z,2.50
2023-05-18T04:59:10.831Z,2.08
2023-05-18T05:01:39.002Z,2.40
2023-05-18T05:04:09.569Z,2.53
2023-05-18T05:06:37.874Z,2.38
2023-05-18T05:09:06.372Z,2.42
2023-05-18T05:11:36.159Z,2.67
2023-05-18T05:14:04.546Z,2.70
2023-05-18T05:16:36.152Z,3.03
2023-05-18T05:19:04.650Z,2.25
2023-05-18T05:21:36.607Z,2.53
2023-05-18T05:24:06.126Z,2.72
2023-05-18T05:26:40.380Z,2.42
2023-05-18T05:29:08.443Z,2.15
2023-05-18T05:31:43.460Z,2.83
2023-05-18T05:34:13.534Z,2.17
2023-05-18T05:36:43.655Z,2.45
2023-05-18T05:39:11.846Z,2.75
2023-05-18T05:41:44.186Z,2.67
2023-05-18T05:44:12.375Z,2.47
2023-05-18T05:46:51.159Z,2.70
2023-05-18T05:49:19.726Z,2.40
2023-05-18T05:51:50.427Z,2.47
2023-05-18T05:54:18.897Z,2.23
2023-05-18T05:56:50.069Z,2.30
2023-05-18T05:59:18.184Z,2.80
2023-05-18T06:01:46.544Z,2.28
2023-05-18T06:04:17.574Z,2.20
2023-05-18T06:06:45.726Z,2.20
2023-05-18T06:09:18.244Z,1.92
2023-05-18T06:11:47.816Z,2.60
2023-05-18T06:14:18.311Z,2.58
2023-05-18T06:16:46.619Z,2.30
2023-05-18T06:19:21.289Z,2.20
2023-05-18T06:21:49.559Z,2.45
2023-05-18T06:24:23.354Z,2.28
2023-05-18T06:26:52.921Z,2.60
2023-05-18T06:29:25.680Z,2.50
2023-05-18T06:31:54.018Z,2.45
2023-05-18T06:34:25.724Z,1.70
2023-05-18T06:36:53.915Z,2.20
2023-05-18T06:39:24.237Z,2.25
2023-05-18T06:41:54.496Z,2.50
2023-05-18T06:44:22.603Z,2.28
2023-05-18T06:46:53.137Z,1.95
2023-05-18T06:49:21.329Z,2.47
2023-05-18T06:51:56.974Z,2.67
2023-05-18T06:54:25.195Z,1.90
2023-05-18T06:56:57.292Z,2.88
2023-05-18T06:59:25.706Z,2.85
2023-05-18T07:02:01.413Z,3.03
2023-05-18T07:04:29.705Z,2.40
2023-05-18T07:06:59.590Z,2.30
2023-05-18T07:09:27.702Z,2.33
2023-05-18T07:12:01.510Z,2.65
2023-05-18T07:14:29.544Z,3.05
2023-05-18T07:17:06.260Z,2.53
2023-05-18T07:19:35.415Z,2.65
2023-05-18T07:22:05.046Z,2.47
2023-05-18T07:24:33.096Z,2.40
2023-05-18T07:27:09.085Z,2.45
2023-05-18T07:29:37.745Z,2.25
2023-05-18T07:32:07.691Z,2.20
2023-05-18T07:34:36.063Z,2.30
2023-05-18T07:37:12.511Z,2.63
2023-05-18T07:39:41.063Z,2.10
2023-05-18T07:42:12.938Z,2.30
2023-05-18T07:44:41.166Z,2.83
2023-05-18T07:47:19.518Z,2.60
2023-05-18T07:49:47.784Z,2.35
2023-05-18T07:52:21.999Z,2.47
2023-05-18T07:54:50.213Z,2.63
2023-05-18T07:57:19.798Z,2.58
2023-05-18T07:59:47.869Z,2.28
2023-05-18T08:02:17.961Z,2.20
2023-05-18T08:04:46.289Z,2.40
2023-05-18T08:07:14.430Z,2.13
2023-05-18T08:09:45.900Z,2.30
2023-05-18T08:12:14.222Z,2.45
2023-05-18T08:14:47.593Z,2.53
2023-05-18T08:17:15.693Z,2.17
2023-05-18T08:19:43.973Z,2.50
2023-05-18T08:22:12.796Z,1.88
2023-05-18T08:24:41.221Z,2.00
2023-05-18T08:27:11.345Z,2.08
2023-05-18T08:29:39.601Z,2.35
2023-05-18T08:32:14.734Z,2.20
2023-05-18T08:34:44.090Z,2.53
2023-05-18T08:37:17.838Z,2.40
2023-05-18T08:39:46.413Z,2.38
2023-05-18T08:42:27.609Z,2.00
2023-05-18T08:45:12.020Z,2.33
2023-05-18T08:47:42.108Z,1.88
2023-05-18T08:50:16.552Z,2.00
2023-05-18T08:52:49.460Z,2.42
2023-05-18T08:55:18.950Z,2.78
2023-05-18T08:57:54.188Z,2.65
2023-05-18T09:00:24.387Z,2.63
2023-05-18T09:02:55.573Z,2.60
2023-05-18T09:05:26.738Z,2.17
2023-05-18T09:07:57.331Z,2.15
2023-05-18T09:10:29.083Z,2.03
2023-05-18T09:12:57.933Z,2.28
2023-05-18T09:15:30.661Z,1.90
2023-05-18T09:18:00.847Z,2.35
2023-05-18T09:20:34.824Z,2.00
2023-05-18T09:23:02.985Z,2.78
2023-05-18T09:25:37.279Z,2.65
2023-05-18T09:28:05.457Z,2.33
2023-05-18T09:30:41.559Z,2.53
2023-05-18T09:33:22.252Z,2.60
2023-05-18T09:35:56.651Z,2.20
2023-05-18T09:38:25.392Z,2.58
2023-05-18T09:40:59.345Z,2.58
2023-05-18T09:43:27.702Z,2.45
2023-05-18T09:46:06.121Z,2.45
2023-05-18T09:48:42.928Z,2.10
2023-05-18T09:51:13.914Z,2.63
2023-05-18T09:53:48.767Z,2.63
2023-05-18T09:56:19.141Z,2.10
2023-05-18T09:58:49.086Z,2.33
2023-05-18T10:01:17.446Z,2.00
2023-05-18T10:04:11.607Z,3.03
2023-05-18T10:06:39.727Z,2.50
2023-05-18T10:09:17.136Z,2.40
2023-05-18T10:11:45.497Z,2.55
2023-05-18T10:14:25.732Z,2.70
2023-05-18T10:17:07.302Z,3.15
2023-05-18T10:19:45.407Z,2.08
2023-05-18T10:22:17.718Z,2.72
2023-05-18T10:24:49.571Z,2.25
2023-05-18T10:27:28.385Z,2.60
2023-05-18T10:30:03.840Z,2.60
2023-05-18T10:32:33.636Z,2.80
2023-05-18T10:35:05.425Z,2.80
2023-05-18T10:37:37.770Z,2.75
2023-05-18T10:40:08.944Z,2.47
2023-05-18T10:42:37.576Z,2.75
2023-05-18T10:45:09.336Z,2.67
2023-05-18T10:47:39.708Z,2.80
2023-05-18T10:50:10.964Z,2.45
2023-05-18T10:52:39.560Z,2.67
2023-05-18T10:55:09.281Z,2.45
2023-05-18T10:57:41.784Z,2.70
2023-05-18T11:00:11.262Z,2.95
2023-05-18T11:02:42.719Z,2.65
2023-05-18T11:05:15.760Z,2.83
2023-05-18T11:07:46.660Z,2.85
2023-05-18T11:10:17.447Z,2.60
2023-05-18T11:12:46.160Z,2.45
2023-05-18T11:15:50.058Z,2.60
2023-05-18T11:18:18.408Z,2.58
2023-05-18T11:20:49.381Z,3.15
2023-05-18T11:23:21.064Z,2.47
2023-05-18T11:25:51.193Z,2.75
2023-05-18T11:28:24.106Z,2.88
2023-05-18T11:30:52.798Z,2.63
2023-05-18T11:33:26.735Z,2.78
2023-05-18T11:36:08.293Z,3.03
2023-05-18T11:38:51.808Z,2.60
2023-05-18T11:41:31.071Z,2.85
2023-05-18T11:44:18.072Z,2.63
2023-05-18T11:47:02.635Z,2.88
2023-05-18T11:49:32.483Z,2.55
2023-05-18T11:52:10.274Z,3.13
2023-05-18T11:54:44.053Z,3.38
2023-05-18T11:57:15.352Z,2.83
2023-05-18T11:59:48.479Z,3.08
2023-05-18T12:02:21.950Z,2.70
2023-05-18T12:04:53.185Z,2.58
2023-05-18T12:07:23.562Z,3.13
2023-05-18T12:09:52.033Z,2.70
2023-05-18T12:12:21.072Z,2.47
2023-05-18T12:14:56.376Z,2.85
2023-05-18T12:17:24.881Z,3.00
2023-05-18T12:19:52.992Z,2.85
2023-05-18T12:22:28.360Z,2.53
2023-05-18T12:24:56.371Z,2.67
2023-05-18T12:27:30.176Z,2.90
2023-05-18T12:29:58.346Z,2.88
2023-05-18T12:32:26.460Z,2.63
2023-05-18T12:34:54.610Z,2.38
2023-05-18T12:37:44.121Z,2.20
2023-05-18T12:40:14.608Z,2.70
2023-05-18T12:42:52.105Z,2.65
2023-05-18T12:45:21.460Z,3.25
2023-05-18T12:47:54.248Z,2.42
2023-05-18T12:50:22.779Z,2.60
2023-05-18T12:52:53.656Z,2.88
2023-05-18T12:55:22.948Z,2.65
2023-05-18T12:58:01.695Z,3.00
2023-05-18T13:00:37.940Z,2.70
2023-05-18T13:03:12.831Z,2.83
2023-05-18T13:05:44.823Z,3.20
2023-05-18T13:08:18.727Z,2.85
2023-05-18T13:10:58.041Z,3.17
2023-05-18T13:13:30.138Z,2.72
2023-05-18T13:16:03.966Z,2.60
2023-05-18T13:18:31.974Z,2.50
2023-05-18T13:21:00.055Z,1.95
2023-05-18T13:23:31.054Z,2.55
2023-05-18T13:26:01.260Z,2.25
2023-05-18T13:28:30.488Z,2.88
2023-05-18T13:30:58.455Z,2.92
2023-05-18T13:33:27.004Z,2.45
2023-05-18T13:35:55.018Z,2.50
2023-05-18T13:38:23.184Z,2.42
2023-05-18T13:40:55.577Z,2.40
2023-05-18T13:43:23.882Z,3.08
2023-05-18T13:45:51.974Z,3.00
2023-05-18T13:48:20.279Z,3.03
2023-05-18T13:50:48.385Z,2.20
2023-05-18T13:53:19.032Z,2.33
2023-05-18T13:55:47.323Z,2.78
2023-05-18T13:58:20.822Z,2.70
2023-05-18T14:00:49.232Z,2.40
2023-05-18T14:03:17.622Z,2.28
2023-05-18T14:05:47.514Z,2.88
2023-05-18T14:08:15.885Z,2.75
2023-05-18T14:10:46.124Z,2.85
2023-05-18T14:13:14.099Z,2.83
2023-05-18T14:15:48.489Z,3.05
2023-05-18T14:18:16.469Z,2.35
2023-05-18T14:20:46.296Z,2.72
2023-05-18T14:23:14.291Z,2.42
2023-05-18T14:25:43.596Z,2.33
2023-05-18T14:28:14.315Z,2.47
2023-05-18T14:30:43.726Z,2.55
2023-05-18T14:33:13.944Z,2.67
2023-05-18T14:35:45.242Z,3.15
2023-05-18T14:38:17.554Z,3.42
2023-05-18T14:40:45.599Z,3.15
2023-05-18T14:43:14.734Z,2.97
2023-05-18T14:45:48.333Z,2.25
2023-05-18T14:48:21.650Z,2.88
2023-05-18T14:50:49.659Z,3.00
2023-05-18T14:53:20.002Z,2.72
2023-05-18T14:55:48.167Z,2.53
2023-05-18T14:58:17.083Z,2.53
2023-05-18T15:00:46.455Z,2.40
2023-05-18T15:03:14.793Z,2.78
2023-05-18T15:05:45.813Z,3.30
2023-05-18T15:08:16.222Z,2.35
2023-05-18T15:10:45.353Z,2.53
2023-05-18T15:13:14.473Z,2.80
2023-05-18T15:15:42.563Z,2.33
2023-05-18T15:18:12.626Z,2.83
2023-05-18T15:20:42.412Z,2.92
2023-05-18T15:23:12.221Z,2.67
2023-05-18T15:25:41.350Z,2.85
2023-05-18T15:28:11.044Z,2.78
2023-05-18T15:30:39.736Z,2.15
2023-05-18T15:33:07.900Z,3.05
2023-05-18T15:35:39.749Z,2.13
2023-05-18T15:38:07.865Z,2.90
2023-05-18T15:40:35.834Z,2.65
2023-05-18T15:43:03.803Z,2.50
2023-05-18T15:45:31.869Z,2.92
2023-05-18T15:47:59.938Z,2.95
2023-05-18T15:50:28.050Z,3.42
2023-05-18T15:52:59.613Z,2.58
2023-05-18T15:55:29.216Z,3.00
2023-05-18T15:58:17.759Z,2.92
2023-05-18T16:00:46.905Z,2.40
2023-05-18T16:03:15.074Z,2.72
2023-05-18T16:05:45.903Z,2.50
2023-05-18T16:08:15.393Z,2.88
2023-05-18T16:10:43.404Z,2.60
2023-05-18T16:13:11.432Z,2.95
2023-05-18T16:15:42.175Z,2.67
2023-05-18T16:18:10.691Z,2.70
2023-05-18T16:20:40.254Z,2.83
2023-05-18T16:23:08.277Z,2.50
2023-05-18T16:25:39.880Z,2.40
2023-05-18T16:28:07.907Z,2.75
2023-05-18T16:30:40.432Z,2.50
2023-05-18T16:33:08.506Z,2.58
2023-05-18T16:35:36.916Z,2.80
2023-05-18T16:38:05.066Z,2.53
2023-05-18T16:40:33.460Z,2.88
2023-05-18T16:43:06.197Z,2.60
2023-05-18T16:45:34.240Z,2.65
2023-05-18T16:48:04.961Z,2.42
2023-05-18T16:50:33.462Z,2.13
2023-05-18T16:53:01.734Z,2.35
2023-05-18T16:55:31.954Z,2.30
2023-05-18T16:57:59.967Z,2.60
2023-05-18T17:00:33.677Z,2.80
2023-05-18T17:03:03.402Z,2.28
2023-05-18T17:05:35.834Z,2.20
2023-05-18T17:08:03.935Z,2.50
2023-05-18T17:10:34.745Z,2.35
2023-05-18T17:13:05.318Z,2.25
2023-05-18T17:15:36.408Z,2.80
2023-05-18T17:18:04.564Z,2.15
2023-05-18T17:20:32.999Z,2.08
2023-05-18T17:23:07.231Z,2.95
2023-05-18T17:25:35.745Z,2.20
2023-05-18T17:28:03.934Z,2.40
2023-05-18T17:30:32.018Z,2.55
2023-05-18T17:33:01.588Z,2.72
2023-05-18T17:35:29.575Z,2.65
2023-05-18T17:37:57.908Z,2.30
2023-05-18T17:40:26.113Z,2.45
2023-05-18T17:42:54.163Z,2.20
2023-05-18T17:45:22.170Z,2.53
2023-05-18T17:47:50.299Z,2.40
2023-05-18T17:50:19.738Z,2.35
2023-05-18T17:52:47.946Z,2.10
2023-05-18T17:55:18.269Z,2.40
2023-05-18T17:57:46.628Z,3.10
2023-05-18T18:00:17.668Z,4.60
2023-05-18T18:02:45.818Z,4.57
2023-05-18T18:05:13.862Z,7.65
2023-05-18T18:07:43.258Z,3.67
2023-05-18T18:10:11.954Z,2.65
2023-05-18T18:12:43.726Z,3.33
2023-05-18T18:15:13.172Z,6.13
2023-05-18T18:17:45.501Z,2.55
2023-05-18T18:20:13.775Z,3.05
2023-05-18T18:22:47.368Z,2.60
2023-05-18T18:25:15.477Z,2.40
2023-05-18T18:27:44.940Z,2.30
2023-05-18T18:30:14.417Z,2.50
2023-05-18T18:32:42.465Z,2.35
2023-05-18T18:35:11.973Z,2.25
2023-05-18T18:37:40.294Z,2.88
2023-05-18T18:40:11.683Z,2.50
2023-05-18T18:42:39.689Z,2.75
2023-05-18T18:45:08.856Z,2.25
2023-05-18T18:47:37.017Z,2.00
2023-05-18T18:50:05.492Z,2.17
2023-05-18T18:52:33.688Z,2.97
2023-05-18T18:55:01.808Z,2.45
2023-05-18T18:57:33.049Z,3.28
2023-05-18T19:00:01.357Z,2.53
2023-05-18T19:02:29.685Z,2.80
2023-05-18T19:04:58.034Z,2.30
2023-05-18T19:07:26.059Z,2.58
2023-05-18T19:09:54.261Z,2.70
2023-05-18T19:12:22.295Z,3.08
2023-05-18T19:14:51.718Z,2.47
2023-05-18T19:17:20.031Z,3.03
2023-05-18T19:19:48.101Z,2.63
2023-05-18T19:22:16.357Z,2.30
2023-05-18T19:24:44.438Z,2.47
2023-05-18T19:27:12.489Z,2.60
2023-05-18T19:29:40.481Z,2.90
2023-05-18T19:32:15.501Z,2.47
2023-05-18T19:34:43.521Z,2.42
2023-05-18T19:37:11.856Z,2.30
2023-05-18T19:39:39.914Z,2.78
2023-05-18T19:42:08.097Z,2.20
2023-05-18T19:44:36.197Z,2.38
2023-05-18T19:47:04.600Z,2.05
2023-05-18T19:49:33.985Z,2.00
2023-05-18T19:52:07.935Z,2.78
2023-05-18T19:54:36.228Z,2.80
2023-05-18T19:57:04.586Z,2.15
2023-05-18T19:59:32.761Z,2.60
2023-05-18T20:02:00.908Z,2.78
2023-05-18T20:04:30.064Z,3.00
2023-05-18T20:07:00.156Z,2.60
2023-05-18T20:09:31.000Z,2.35
2023-05-18T20:11:59.496Z,2.58
2023-05-18T20:14:33.870Z,2.35
2023-05-18T20:17:03.123Z,2.83
2023-05-18T20:19:32.735Z,3.03
2023-05-18T20:22:02.245Z,3.05
2023-05-18T20:24:43.317Z,3.40
2023-05-18T20:27:17.917Z,3.40
2023-05-18T20:29:46.436Z,3.40
2023-05-18T20:32:19.536Z,2.70
2023-05-18T20:34:48.193Z,3.00
2023-05-18T20:37:19.477Z,3.10
2023-05-18T20:39:50.818Z,3.38
2023-05-18T20:42:22.422Z,3.13
2023-05-18T20:44:52.638Z,2.60
2023-05-18T20:47:27.059Z,3.15
2023-05-18T20:49:58.289Z,2.85
2023-05-18T20:52:29.180Z,3.20
2023-05-18T20:54:57.440Z,3.00
2023-05-18T20:57:27.764Z,2.95
2023-05-18T20:59:56.088Z,2.85
2023-05-18T21:02:31.925Z,3.63
2023-05-18T21:05:00.208Z,3.30
2023-05-18T21:07:39.957Z,3.53
2023-05-18T21:10:13.726Z,3.15
2023-05-18T21:12:41.690Z,2.90
2023-05-18T21:15:20.541Z,3.33
2023-05-18T21:17:48.716Z,3.00
2023-05-18T21:20:22.839Z,3.28
2023-05-18T21:22:58.691Z,3.45
2023-05-18T21:25:27.147Z,3.30
2023-05-18T21:28:02.795Z,3.00
2023-05-18T21:30:31.807Z,3.05
2023-05-18T21:33:01.629Z,3.55
2023-05-18T21:35:30.381Z,3.13
2023-05-18T21:38:04.453Z,2.92
2023-05-18T21:40:32.747Z,3.95
2023-05-18T21:43:05.105Z,3.40
2023-05-18T21:45:33.510Z,3.28
2023-05-18T21:48:01.707Z,3.42
2023-05-18T21:50:30.223Z,3.90
2023-05-18T21:52:59.802Z,2.80
2023-05-18T21:55:32.381Z,3.47
2023-05-18T21:58:00.979Z,3.20
2023-05-18T22:00:31.492Z,3.28
2023-05-18T22:02:59.831Z,3.05
2023-05-18T22:05:27.960Z,3.50
2023-05-18T22:07:59.290Z,3.20
2023-05-18T22:10:31.389Z,3.08
2023-05-18T22:12:59.773Z,3.88
2023-05-18T22:15:27.810Z,3.42
2023-05-18T22:18:01.040Z,3.60
2023-05-18T22:20:29.800Z,2.90
2023-05-18T22:23:04.018Z,3.35
2023-05-18T22:25:33.656Z,3.75
2023-05-18T22:28:07.896Z,3.33
2023-05-18T22:30:36.170Z,3.17
2023-05-18T22:33:10.565Z,3.03
2023-05-18T22:35:42.246Z,3.33
2023-05-18T22:38:11.022Z,3.33
2023-05-18T22:40:43.043Z,3.38
2023-05-18T22:43:11.304Z,3.55
2023-05-18T22:45:46.822Z,3.70
2023-05-18T22:48:15.112Z,3.60
2023-05-18T22:50:46.562Z,4.43
2023-05-18T22:53:14.718Z,3.20
2023-05-18T22:55:45.796Z,2.95
2023-05-18T22:58:14.432Z,3.53
2023-05-18T23:00:42.554Z,3.10
2023-05-18T23:03:17.569Z,3.88
2023-05-18T23:05:49.419Z,3.35
2023-05-18T23:08:17.525Z,3.55
2023-05-18T23:10:46.993Z,4.05
2023-05-18T23:13:21.124Z,3.58
2023-05-18T23:15:49.764Z,3.22
2023-05-18T23:18:19.771Z,4.35
2023-05-18T23:20:51.021Z,3.47
2023-05-18T23:23:20.692Z,3.40
2023-05-18T23:25:50.529Z,3.70
2023-05-18T23:28:22.731Z,3.35
2023-05-18T23:30:51.015Z,4.17
2023-05-18T23:33:29.845Z,3.40
2023-05-18T23:36:05.153Z,3.78
2023-05-18T23:38:37.887Z,3.83
2023-05-18T23:41:09.574Z,3.17
2023-05-18T23:43:38.386Z,3.78
2023-05-18T23:46:07.442Z,3.57
2023-05-18T23:48:36.106Z,3.60
2023-05-18T23:51:11.697Z,3.42
2023-05-18T23:53:39.923Z,3.35
2023-05-18T23:56:16.297Z,3.97
2023-05-18T23:58:45.661Z,3.33
